createdAt,value
2018-06-24T03:00:58.553Z,4.60
2018-06-24T03:01:58.775Z,4.90
2018-06-24T03:02:58.900Z,6.00
2018-06-24T03:03:59.066Z,6.90
2018-06-24T03:04:59.215Z,6.60
2018-06-24T03:05:59.402Z,5.60
2018-06-24T03:06:59.553Z,6.00
2018-06-24T03:07:59.813Z,7.20
2018-06-24T03:08:59.921Z,6.90
2018-06-24T03:10:00.116Z,6.60
2018-06-24T03:11:00.284Z,6.30
2018-06-24T03:12:00.490Z,4.50
2018-06-24T03:13:00.620Z,4.40
2018-06-24T03:14:00.783Z,6.20
2018-06-24T03:15:00.960Z,6.40
2018-06-24T03:16:01.123Z,6.90
2018-06-24T03:17:01.298Z,4.60
2018-06-24T03:18:01.466Z,6.50
2018-06-24T03:19:01.600Z,6.80
2018-06-24T03:20:01.830Z,5.90
2018-06-24T03:21:01.928Z,6.50
2018-06-24T03:22:02.107Z,7.20
2018-06-24T03:23:02.320Z,6.90
2018-06-24T03:24:02.436Z,5.10
2018-06-24T03:25:02.586Z,6.30
2018-06-24T03:26:02.766Z,8.10
2018-06-24T03:27:02.955Z,7.80
2018-06-24T03:28:03.134Z,4.60
2018-06-24T03:29:03.288Z,5.80
2018-06-24T03:30:03.464Z,5.20
2018-06-24T03:31:03.680Z,6.30
2018-06-24T03:32:03.815Z,6.30
2018-06-24T03:33:03.963Z,6.40
2018-06-24T03:34:04.112Z,6.30
2018-06-24T03:35:04.316Z,5.60
2018-06-24T03:36:04.481Z,4.60
2018-06-24T03:37:04.589Z,4.30
2018-06-24T03:38:04.828Z,6.40
2018-06-24T03:39:04.914Z,6.00
2018-06-24T03:40:05.124Z,5.80
2018-06-24T03:41:05.289Z,5.20
2018-06-24T03:42:05.477Z,5.90
2018-06-24T03:43:05.569Z,5.00
2018-06-24T03:44:05.759Z,6.00
2018-06-24T03:45:05.996Z,5.20
2018-06-24T03:46:06.100Z,6.90
2018-06-24T03:47:06.294Z,4.90
2018-06-24T03:48:06.433Z,7.00
2018-06-24T03:49:06.644Z,4.00
2018-06-24T03:50:06.821Z,4.20
2018-06-24T03:51:06.949Z,5.10
2018-06-24T03:52:07.153Z,4.60
2018-06-24T03:53:07.306Z,5.40
2018-06-24T03:54:07.464Z,7.70
2018-06-24T03:55:07.619Z,6.00
2018-06-24T03:56:07.789Z,6.00
2018-06-24T03:57:08.027Z,6.10
2018-06-24T03:58:08.177Z,5.10
2018-06-24T03:59:08.310Z,5.20
2018-06-24T04:00:08.468Z,5.40
2018-06-24T04:01:08.645Z,4.90
2018-06-24T04:02:08.842Z,6.60
2018-06-24T04:03:08.962Z,4.60
2018-06-24T04:04:09.097Z,7.20
2018-06-24T04:05:09.296Z,6.10
2018-06-24T04:06:09.482Z,4.70
2018-06-24T04:07:09.616Z,4.70
2018-06-24T04:08:09.745Z,4.90
2018-06-24T04:09:09.988Z,6.10
2018-06-24T04:10:10.161Z,5.10
2018-06-24T04:11:10.273Z,5.50
2018-06-24T04:12:10.491Z,5.00
2018-06-24T04:13:10.656Z,6.00
2018-06-24T04:14:10.785Z,5.40
2018-06-24T04:15:10.992Z,6.10
2018-06-24T04:16:11.079Z,5.30
2018-06-24T04:17:11.316Z,5.20
2018-06-24T04:18:11.407Z,7.40
2018-06-24T04:19:11.601Z,4.80
2018-06-24T04:20:11.758Z,4.40
2018-06-24T04:21:11.954Z,6.80
2018-06-24T04:22:12.072Z,5.10
2018-06-24T04:23:12.283Z,6.20
2018-06-24T04:24:12.435Z,5.60
2018-06-24T04:25:12.689Z,5.30
2018-06-24T04:26:12.813Z,5.90
2018-06-24T04:27:12.938Z,6.10
2018-06-24T04:28:13.136Z,5.30
2018-06-24T04:29:13.274Z,6.20
2018-06-24T04:30:13.469Z,6.00
2018-06-24T04:31:13.592Z,5.70
2018-06-24T04:32:13.766Z,5.90
2018-06-24T04:33:13.976Z,5.30
2018-06-24T04:34:14.163Z,7.30
2018-06-24T04:35:14.298Z,5.00
2018-06-24T04:36:14.504Z,5.30
2018-06-24T04:37:14.661Z,8.10
2018-06-24T04:38:14.849Z,6.40
2018-06-24T04:39:15.016Z,4.80
2018-06-24T04:40:15.165Z,6.20
2018-06-24T04:41:15.285Z,5.90
2018-06-24T04:42:15.451Z,5.70
2018-06-24T04:43:15.590Z,6.80
2018-06-24T04:44:15.792Z,5.10
2018-06-24T04:45:15.924Z,5.10
2018-06-24T04:46:16.128Z,4.90
2018-06-24T04:47:16.298Z,6.10
2018-06-24T04:48:16.480Z,5.30
2018-06-24T04:49:16.621Z,5.60
2018-06-24T04:50:16.756Z,5.20
2018-06-24T04:51:16.977Z,5.40
2018-06-24T04:52:17.153Z,5.40
2018-06-24T04:53:17.300Z,8.10
2018-06-24T04:54:17.433Z,4.40
2018-06-24T04:55:17.623Z,5.80
2018-06-24T04:56:17.798Z,4.80
2018-06-24T04:57:18.024Z,6.90
2018-06-24T04:58:18.161Z,4.50
2018-06-24T04:59:18.265Z,5.20
2018-06-24T05:00:18.450Z,3.90
2018-06-24T05:01:18.648Z,5.10
2018-06-24T05:02:18.853Z,4.60
2018-06-24T05:03:18.975Z,6.80
2018-06-24T05:04:19.141Z,4.90
2018-06-24T05:05:19.314Z,6.20
2018-06-24T05:06:19.512Z,5.30
2018-06-24T05:07:19.666Z,5.10
2018-06-24T05:08:19.815Z,4.90
2018-06-24T05:09:19.942Z,4.40
2018-06-24T05:10:20.099Z,5.00
2018-06-24T05:11:20.275Z,5.50
2018-06-24T05:12:20.461Z,5.00
2018-06-24T05:13:20.638Z,6.30
2018-06-24T05:14:20.781Z,4.20
2018-06-24T05:15:20.979Z,5.40
2018-06-24T05:16:21.109Z,6.40
2018-06-24T05:17:21.367Z,4.80
2018-06-24T05:18:21.472Z,4.90
2018-06-24T05:19:21.673Z,5.00
2018-06-24T05:20:21.839Z,4.50
2018-06-24T05:21:21.997Z,8.80
2018-06-24T05:22:22.134Z,4.60
2018-06-24T05:23:22.379Z,5.60
2018-06-24T05:24:22.528Z,4.90
2018-06-24T05:25:22.699Z,4.00
2018-06-24T05:26:22.870Z,3.20
2018-06-24T05:27:22.962Z,5.90
2018-06-24T05:28:23.158Z,4.70
2018-06-24T05:29:23.332Z,5.30
2018-06-24T05:30:23.449Z,4.70
2018-06-24T05:31:23.666Z,4.30
2018-06-24T05:32:23.804Z,5.20
2018-06-24T05:33:24.038Z,6.30
2018-06-24T05:34:24.124Z,5.10
2018-06-24T05:35:24.321Z,4.90
2018-06-24T05:36:24.471Z,5.30
2018-06-24T05:37:24.646Z,4.40
2018-06-24T05:38:24.855Z,6.70
2018-06-24T05:39:25.085Z,5.20
2018-06-24T05:40:25.205Z,5.20
2018-06-24T05:41:25.466Z,5.10
2018-06-24T05:42:25.582Z,4.60
2018-06-24T05:43:25.687Z,5.10
2018-06-24T05:44:25.927Z,5.30
2018-06-24T05:45:26.056Z,5.70
2018-06-24T05:46:26.355Z,5.10
2018-06-24T05:47:26.427Z,4.60
2018-06-24T05:48:26.638Z,4.30
2018-06-24T05:49:26.774Z,6.80
2018-06-24T05:50:26.970Z,4.60
2018-06-24T05:51:27.099Z,6.40
2018-06-24T05:52:27.230Z,5.50
2018-06-24T05:53:27.434Z,5.70
2018-06-24T05:54:27.557Z,7.30
2018-06-24T05:55:27.755Z,4.60
2018-06-24T05:56:27.962Z,6.20
2018-06-24T05:57:28.085Z,6.30
2018-06-24T05:58:28.291Z,4.00
2018-06-24T05:59:28.459Z,5.80
2018-06-24T06:00:28.599Z,6.30
2018-06-24T06:01:28.712Z,3.80
2018-06-24T06:02:28.910Z,4.80
2018-06-24T06:03:29.091Z,4.40
2018-06-24T06:04:29.266Z,5.10
2018-06-24T06:05:29.369Z,5.50
2018-06-24T06:06:29.569Z,6.60
2018-06-24T06:07:29.752Z,5.80
2018-06-24T06:08:29.900Z,3.50
2018-06-24T06:09:30.053Z,5.50
2018-06-24T06:10:30.319Z,5.20
2018-06-24T06:11:30.387Z,5.70
2018-06-24T06:12:30.567Z,6.00
2018-06-24T06:13:30.739Z,5.00
2018-06-24T06:14:30.884Z,5.20
2018-06-24T06:15:31.077Z,5.50
2018-06-24T06:16:31.269Z,7.40
2018-06-24T06:17:31.408Z,4.80
2018-06-24T06:18:31.582Z,4.40
2018-06-24T06:19:31.767Z,5.50
2018-06-24T06:20:31.980Z,5.40
2018-06-24T06:21:32.098Z,6.30
2018-06-24T06:22:32.213Z,6.00
2018-06-24T06:23:32.430Z,6.00
2018-06-24T06:24:32.553Z,7.50
2018-06-24T06:25:32.775Z,6.60
2018-06-24T06:26:32.895Z,5.70
2018-06-24T06:27:33.068Z,5.00
2018-06-24T06:28:33.277Z,4.70
2018-06-24T06:29:33.431Z,5.60
2018-06-24T06:30:33.582Z,5.50
2018-06-24T06:31:33.791Z,6.50
2018-06-24T06:32:33.993Z,7.10
2018-06-24T06:33:34.116Z,6.90
2018-06-24T06:34:34.276Z,4.40
2018-06-24T06:35:34.385Z,5.70
2018-06-24T06:36:34.578Z,6.80
2018-06-24T06:37:34.767Z,5.50
2018-06-24T06:38:34.943Z,6.60
2018-06-24T06:39:35.095Z,5.40
2018-06-24T06:40:35.278Z,6.40
2018-06-24T06:41:35.424Z,5.50
2018-06-24T06:42:35.566Z,5.30
2018-06-24T06:43:35.814Z,6.00
2018-06-24T06:44:35.989Z,7.20
2018-06-24T06:45:36.372Z,4.30
2018-06-24T06:46:36.311Z,7.50
2018-06-24T06:47:36.507Z,6.70
2018-06-24T06:48:36.697Z,5.70
2018-06-24T06:49:36.778Z,7.40
2018-06-24T06:50:36.998Z,5.30
2018-06-24T06:51:37.122Z,4.40
2018-06-24T06:52:37.386Z,5.70
2018-06-24T06:53:37.504Z,5.80
2018-06-24T06:54:37.717Z,5.30
2018-06-24T06:55:37.832Z,6.60
2018-06-24T06:56:38.059Z,5.70
2018-06-24T06:57:38.160Z,5.30
2018-06-24T06:58:38.335Z,6.90
2018-06-24T06:59:38.540Z,4.90
2018-06-24T07:00:38.660Z,5.30
2018-06-24T07:01:38.892Z,5.40
2018-06-24T07:02:39.054Z,7.10
2018-06-24T07:03:39.179Z,4.50
2018-06-24T07:04:39.388Z,6.10
2018-06-24T07:05:39.630Z,5.10
2018-06-24T07:06:39.683Z,5.50
2018-06-24T07:07:39.883Z,5.60
2018-06-24T07:08:40.007Z,6.50
2018-06-24T07:09:40.177Z,4.70
2018-06-24T07:10:40.389Z,5.90
2018-06-24T07:11:40.544Z,7.10
2018-06-24T07:12:40.736Z,4.30
2018-06-24T07:13:40.880Z,7.00
2018-06-24T07:14:41.072Z,6.10
2018-06-24T07:15:41.173Z,6.20
2018-06-24T07:16:41.393Z,5.40
2018-06-24T07:17:41.558Z,4.30
2018-06-24T07:18:41.726Z,7.50
2018-06-24T07:19:41.875Z,6.00
2018-06-24T07:20:42.024Z,8.20
2018-06-24T07:21:42.260Z,5.10
2018-06-24T07:22:42.356Z,4.50
2018-06-24T07:23:42.555Z,5.50
2018-06-24T07:24:42.731Z,5.20
2018-06-24T07:25:42.911Z,5.40
2018-06-24T07:26:43.078Z,5.10
2018-06-24T07:27:43.280Z,5.10
2018-06-24T07:28:43.444Z,5.30
2018-06-24T07:29:43.593Z,5.60
2018-06-24T07:30:43.759Z,5.00
2018-06-24T07:31:43.946Z,5.40
2018-06-24T07:32:44.123Z,5.60
2018-06-24T07:33:44.375Z,5.00
2018-06-24T07:34:44.475Z,8.80
2018-06-24T07:35:44.709Z,5.70
2018-06-24T07:36:44.834Z,6.80
2018-06-24T07:37:45.040Z,6.80
2018-06-24T07:38:45.147Z,5.80
2018-06-24T07:39:45.327Z,6.70
2018-06-24T07:40:45.522Z,6.10
2018-06-24T07:41:45.708Z,6.70
2018-06-24T07:42:45.884Z,8.10
2018-06-24T07:43:46.003Z,7.40
2018-06-24T07:44:46.184Z,7.00
2018-06-24T07:45:46.306Z,6.90
2018-06-24T07:46:46.646Z,8.40
2018-06-24T07:47:46.719Z,7.30
2018-06-24T07:48:46.874Z,7.90
2018-06-24T07:49:47.062Z,6.50
2018-06-24T07:50:47.185Z,6.00
2018-06-24T07:51:47.385Z,5.60
2018-06-24T07:52:47.569Z,6.50
2018-06-24T07:53:47.793Z,7.30
2018-06-24T07:54:47.885Z,7.10
2018-06-24T07:55:48.112Z,7.90
2018-06-24T07:56:48.244Z,6.10
2018-06-24T07:57:48.414Z,4.60
2018-06-24T07:58:48.661Z,5.70
2018-06-24T07:59:48.757Z,7.00
2018-06-24T08:00:49.015Z,3.80
2018-06-24T08:01:49.171Z,7.40
2018-06-24T08:02:49.380Z,7.40
2018-06-24T08:03:49.567Z,6.80
2018-06-24T08:04:49.644Z,5.60
2018-06-24T08:05:49.882Z,7.70
2018-06-24T08:06:49.983Z,6.50
2018-06-24T08:07:50.132Z,4.80
2018-06-24T08:08:50.340Z,6.60
2018-06-24T08:09:50.477Z,6.00
2018-06-24T08:10:50.651Z,8.30
2018-06-24T08:11:50.845Z,5.60
2018-06-24T08:12:50.963Z,5.90
2018-06-24T08:13:51.123Z,5.80
2018-06-24T08:14:51.389Z,5.10
2018-06-24T08:15:51.497Z,6.60
2018-06-24T08:16:51.731Z,6.10
2018-06-24T08:17:51.828Z,5.30
2018-06-24T08:18:52.140Z,4.20
2018-06-24T08:19:52.173Z,7.10
2018-06-24T08:20:52.383Z,6.90
2018-06-24T08:21:52.583Z,5.50
2018-06-24T08:22:52.770Z,5.00
2018-06-24T08:23:52.951Z,6.10
2018-06-24T08:24:53.057Z,7.20
2018-06-24T08:25:53.193Z,5.60
2018-06-24T08:26:53.424Z,4.90
2018-06-24T08:27:53.602Z,8.60
2018-06-24T08:28:53.722Z,6.10
2018-06-24T08:29:53.934Z,5.40
2018-06-24T08:30:54.104Z,6.60
2018-06-24T08:31:54.603Z,4.30
2018-06-24T08:32:54.484Z,7.20
2018-06-24T08:33:54.670Z,5.60
2018-06-24T08:34:54.842Z,6.10
2018-06-24T08:35:54.984Z,5.60
2018-06-24T08:36:55.223Z,6.20
2018-06-24T08:37:55.347Z,5.60
2018-06-24T08:38:55.558Z,7.40
2018-06-24T08:39:55.693Z,7.50
2018-06-24T08:40:55.848Z,6.00
2018-06-24T08:41:56.047Z,5.70
2018-06-24T08:42:56.254Z,5.30
2018-06-24T08:43:56.383Z,5.60
2018-06-24T08:44:56.596Z,7.20
2018-06-24T08:45:56.756Z,7.30
2018-06-24T08:46:57.002Z,8.70
2018-06-24T08:47:57.155Z,7.20
2018-06-24T08:48:57.317Z,6.10
2018-06-24T08:49:57.401Z,6.70
2018-06-24T08:50:57.665Z,5.80
2018-06-24T08:51:57.807Z,5.40
2018-06-24T08:52:57.925Z,6.30
2018-06-24T08:53:58.109Z,6.00
2018-06-24T08:54:58.339Z,5.60
2018-06-24T08:55:58.490Z,6.00
2018-06-24T08:56:58.710Z,5.30
2018-06-24T08:57:58.840Z,8.40
2018-06-24T08:58:59.045Z,6.80
2018-06-24T08:59:59.144Z,5.80
2018-06-24T09:00:59.391Z,5.70
2018-06-24T09:01:59.564Z,7.00
2018-06-24T09:02:59.765Z,6.70
2018-06-24T09:03:59.851Z,7.70
2018-06-24T09:05:00.102Z,5.00
2018-06-24T09:06:00.343Z,6.60
2018-06-24T09:07:00.451Z,7.10
2018-06-24T09:08:00.605Z,6.80
2018-06-24T09:09:00.707Z,6.20
2018-06-24T09:10:00.990Z,4.20
2018-06-24T09:11:01.103Z,6.10
2018-06-24T09:12:01.296Z,6.30
2018-06-24T09:13:01.519Z,5.60
2018-06-24T09:14:01.669Z,6.40
2018-06-24T09:15:01.861Z,6.20
2018-06-24T09:16:02.079Z,5.70
2018-06-24T09:17:02.142Z,5.00
2018-06-24T09:18:02.396Z,5.20
2018-06-24T09:19:02.498Z,4.40
2018-06-24T09:20:02.687Z,5.00
2018-06-24T09:21:02.971Z,4.80
2018-06-24T09:22:03.174Z,3.90
2018-06-24T09:23:03.241Z,4.00
2018-06-24T09:24:03.419Z,3.90
2018-06-24T09:25:03.653Z,3.50
2018-06-24T09:26:03.840Z,6.00
2018-06-24T09:27:03.980Z,3.30
2018-06-24T09:28:04.143Z,4.90
2018-06-24T09:29:04.396Z,4.30
2018-06-24T09:30:04.553Z,4.60
2018-06-24T09:31:04.627Z,6.30
2018-06-24T09:32:04.821Z,6.00
2018-06-24T09:33:05.068Z,3.40
2018-06-24T09:34:05.258Z,6.70
2018-06-24T09:35:05.451Z,6.40
2018-06-24T09:36:05.572Z,4.00
2018-06-24T09:37:05.794Z,6.80
2018-06-24T09:38:05.979Z,6.70
2018-06-24T09:39:06.127Z,5.40
2018-06-24T09:40:06.336Z,4.40
2018-06-24T09:41:06.644Z,6.60
2018-06-24T09:42:06.753Z,5.10
2018-06-24T09:43:06.972Z,6.00
2018-06-24T09:44:07.144Z,6.10
2018-06-24T09:45:07.336Z,6.20
2018-06-24T09:46:07.484Z,4.40
2018-06-24T09:47:07.669Z,5.10
2018-06-24T09:48:07.813Z,5.40
2018-06-24T09:49:08.018Z,5.50
2018-06-24T09:50:08.291Z,5.70
2018-06-24T09:51:08.456Z,5.30
2018-06-24T09:52:08.614Z,3.80
2018-06-24T09:53:08.736Z,2.90
2018-06-24T09:54:08.905Z,3.70
2018-06-24T09:55:09.144Z,2.70
2018-06-24T09:56:09.254Z,5.60
2018-06-24T09:57:09.407Z,4.80
2018-06-24T09:58:09.583Z,4.00
2018-06-24T09:59:09.776Z,4.90
2018-06-24T10:00:09.988Z,4.60
2018-06-24T10:01:10.206Z,3.40
2018-06-24T10:02:10.354Z,4.50
2018-06-24T10:03:10.469Z,4.10
2018-06-24T10:04:10.624Z,4.20
2018-06-24T10:05:10.828Z,4.90
2018-06-24T10:06:10.961Z,4.60
2018-06-24T10:07:11.114Z,3.50
2018-06-24T10:08:11.325Z,3.50
2018-06-24T10:09:11.574Z,5.70
2018-06-24T10:10:11.682Z,3.60
2018-06-24T10:11:11.920Z,3.20
2018-06-24T10:12:12.058Z,3.90
2018-06-24T10:13:12.282Z,3.30
2018-06-24T10:14:12.400Z,4.10
2018-06-24T10:15:12.601Z,5.00
2018-06-24T10:16:12.806Z,4.50
2018-06-24T10:17:12.982Z,4.30
2018-06-24T10:18:13.220Z,3.10
2018-06-24T10:19:13.344Z,4.20
2018-06-24T10:20:13.512Z,3.70
2018-06-24T10:21:13.799Z,3.10
2018-06-24T10:22:14.024Z,4.10
2018-06-24T10:23:14.137Z,3.60
2018-06-24T10:24:14.398Z,3.50
2018-06-24T10:25:14.537Z,4.40
2018-06-24T10:26:14.716Z,3.30
2018-06-24T10:27:15.011Z,3.70
2018-06-24T10:28:15.106Z,5.00
2018-06-24T10:29:15.326Z,5.50
2018-06-24T10:30:15.452Z,3.50
2018-06-24T10:31:15.686Z,3.00
2018-06-24T10:32:15.846Z,3.30
2018-06-24T10:33:16.048Z,4.40
2018-06-24T10:34:16.210Z,4.60
2018-06-24T10:35:16.384Z,3.40
2018-06-24T10:36:16.526Z,4.30
2018-06-24T10:37:16.713Z,2.50
2018-06-24T10:38:16.940Z,3.00
2018-06-24T10:39:17.119Z,4.20
2018-06-24T10:40:17.265Z,3.80
2018-06-24T10:41:17.585Z,3.40
2018-06-24T10:42:17.648Z,3.40
2018-06-24T10:43:17.863Z,3.20
2018-06-24T10:44:18.017Z,3.30
2018-06-24T10:45:18.256Z,3.10
2018-06-24T10:46:18.338Z,4.00
2018-06-24T10:47:18.608Z,4.10
2018-06-24T10:48:18.716Z,3.40
2018-06-24T10:49:18.905Z,5.00
2018-06-24T10:50:19.086Z,4.30
2018-06-24T10:51:19.295Z,3.80
2018-06-24T10:52:19.378Z,4.40
2018-06-24T10:53:19.587Z,3.50
2018-06-24T10:54:19.707Z,5.70
2018-06-24T10:55:19.985Z,5.70
2018-06-24T10:56:20.014Z,2.80
2018-06-24T10:57:20.197Z,3.90
2018-06-24T10:58:20.389Z,3.40
2018-06-24T10:59:20.554Z,4.30
2018-06-24T11:00:20.722Z,3.40
2018-06-24T11:01:20.939Z,3.90
2018-06-24T11:02:21.215Z,3.90
2018-06-24T11:03:21.296Z,3.70
2018-06-24T11:04:21.471Z,3.40
2018-06-24T11:05:21.701Z,3.00
2018-06-24T11:06:21.741Z,4.30
2018-06-24T11:07:21.963Z,3.80
2018-06-24T11:08:22.105Z,3.00
2018-06-24T11:09:22.268Z,3.10
2018-06-24T11:10:22.461Z,3.70
2018-06-24T11:11:22.645Z,4.70
2018-06-24T11:12:22.839Z,2.60
2018-06-24T11:13:23.073Z,4.10
2018-06-24T11:14:23.211Z,4.40
2018-06-24T11:15:23.397Z,4.10
2018-06-24T11:16:23.606Z,4.20
2018-06-24T11:17:23.806Z,4.20
2018-06-24T11:18:23.924Z,3.30
2018-06-24T11:19:24.156Z,4.10
2018-06-24T11:20:24.379Z,2.80
2018-06-24T11:21:24.490Z,4.00
2018-06-24T11:22:24.654Z,5.60
2018-06-24T11:23:24.843Z,3.90
2018-06-24T11:24:24.954Z,4.60
2018-06-24T11:25:25.183Z,4.30
2018-06-24T11:26:25.313Z,4.60
2018-06-24T11:27:25.467Z,4.50
2018-06-24T11:28:25.677Z,3.70
2018-06-24T11:29:25.797Z,3.80
2018-06-24T11:30:25.965Z,4.60
2018-06-24T11:31:26.198Z,5.20
2018-06-24T11:32:26.320Z,5.40
2018-06-24T11:33:26.482Z,5.10
2018-06-24T11:34:26.670Z,4.90
2018-06-24T11:35:26.853Z,4.60
2018-06-24T11:36:27.011Z,5.00
2018-06-24T11:37:27.180Z,4.20
2018-06-24T11:38:27.312Z,4.30
2018-06-24T11:39:27.477Z,5.90
2018-06-24T11:40:27.698Z,5.90
2018-06-24T11:41:27.885Z,4.70
2018-06-24T11:42:28.094Z,4.50
2018-06-24T11:43:28.245Z,3.30
2018-06-24T11:44:28.482Z,6.80
2018-06-24T11:45:28.750Z,3.90
2018-06-24T11:46:33.960Z,6.70
2018-06-24T11:47:28.890Z,4.50
2018-06-24T11:48:29.064Z,5.40
2018-06-24T11:49:29.506Z,4.30
2018-06-24T11:50:29.660Z,4.30
2018-06-24T11:51:29.671Z,5.40
2018-06-24T11:52:29.875Z,4.20
2018-06-24T11:53:30.091Z,4.20
2018-06-24T11:54:30.204Z,4.30
2018-06-24T11:55:30.442Z,5.40
2018-06-24T11:56:30.698Z,4.40
2018-06-24T11:57:30.795Z,4.60
2018-06-24T11:58:30.874Z,4.20
2018-06-24T11:59:31.095Z,3.40
2018-06-24T12:00:31.379Z,5.30
2018-06-24T12:01:31.439Z,4.20
2018-06-24T12:02:31.813Z,4.40
2018-06-24T12:03:31.864Z,5.40
2018-06-24T12:04:32.066Z,5.60
2018-06-24T12:05:32.373Z,3.80
2018-06-24T12:06:32.452Z,3.80
2018-06-24T12:07:32.634Z,3.50
2018-06-24T12:08:32.868Z,3.10
2018-06-24T12:09:33.164Z,1.90
2018-06-24T12:10:33.201Z,4.70
2018-06-24T12:11:33.514Z,3.90
2018-06-24T12:12:33.834Z,4.40
2018-06-24T12:13:33.868Z,3.50
2018-06-24T12:14:33.915Z,3.20
2018-06-24T12:15:34.084Z,2.80
2018-06-24T12:16:34.362Z,2.60
2018-06-24T12:17:34.465Z,3.10
2018-06-24T12:18:34.681Z,3.40
2018-06-24T12:19:34.836Z,2.10
2018-06-24T12:20:35.220Z,4.50
2018-06-24T12:21:35.165Z,4.30
2018-06-24T12:22:46.791Z,2.50
2018-06-24T12:23:38.466Z,3.50
2018-06-24T12:24:40.335Z,2.60
2018-06-24T12:25:38.170Z,3.80
2018-06-24T12:28:40.456Z,3.90
2018-06-24T12:29:38.896Z,2.70
2018-06-24T12:30:39.824Z,3.50
2018-06-24T12:31:40.363Z,2.80
2018-06-24T12:32:41.424Z,4.30
2018-06-24T12:33:41.620Z,2.40
2018-06-24T12:34:40.566Z,3.00
2018-06-24T12:35:40.325Z,2.40
2018-06-24T12:36:41.667Z,2.60
2018-06-24T12:37:39.256Z,3.90
2018-06-24T12:39:41.335Z,3.00
2018-06-24T12:40:42.094Z,3.40
2018-06-24T12:41:42.978Z,3.80
2018-06-24T12:42:39.495Z,2.70
2018-06-24T12:43:39.219Z,2.40
2018-06-24T12:44:39.404Z,3.20
2018-06-24T12:45:39.861Z,2.80
2018-06-24T12:46:39.707Z,3.00
2018-06-24T12:47:40.443Z,2.70
2018-06-24T12:48:40.221Z,3.00
2018-06-24T12:49:40.403Z,2.80
2018-06-24T12:50:40.574Z,3.40
2018-06-24T12:51:40.724Z,4.20
2018-06-24T12:52:40.716Z,2.60
2018-06-24T12:53:40.863Z,4.20
2018-06-24T12:54:40.925Z,2.90
2018-06-24T12:55:41.199Z,4.20
2018-06-24T12:56:41.371Z,2.90
2018-06-24T12:57:41.687Z,3.00
2018-06-24T12:58:41.765Z,4.60
2018-06-24T12:59:42.302Z,3.80
2018-06-24T13:00:42.562Z,3.10
2018-06-24T13:01:42.224Z,3.10
2018-06-24T13:02:42.561Z,2.40
2018-06-24T13:03:42.649Z,4.10
2018-06-24T13:04:42.800Z,2.90
2018-06-24T13:05:42.981Z,3.80
2018-06-24T13:06:43.162Z,2.70
2018-06-24T13:07:43.290Z,2.70
2018-06-24T13:08:43.556Z,5.20
2018-06-24T13:09:43.676Z,4.00
2018-06-24T13:10:43.841Z,4.40
2018-06-24T13:11:43.996Z,3.70
2018-06-24T13:12:44.169Z,3.30
2018-06-24T13:13:44.404Z,4.80
2018-06-24T13:14:44.569Z,1.70
2018-06-24T13:15:44.702Z,2.70
2018-06-24T13:16:44.890Z,3.00
2018-06-24T13:17:45.108Z,3.00
2018-06-24T13:18:45.304Z,3.00
2018-06-24T13:19:45.423Z,2.20
2018-06-24T13:20:45.635Z,3.20
2018-06-24T13:21:45.819Z,3.50
2018-06-24T13:22:46.056Z,2.80
2018-06-24T13:23:46.188Z,2.20
2018-06-24T13:24:46.308Z,3.50
2018-06-24T13:25:46.514Z,2.90
2018-06-24T13:26:46.735Z,2.90
2018-06-24T13:27:46.856Z,2.00
2018-06-24T13:28:47.099Z,2.90
2018-06-24T13:29:47.173Z,2.90
2018-06-24T13:30:47.397Z,2.90
2018-06-24T13:31:47.534Z,3.40
2018-06-24T13:32:47.712Z,2.60
2018-06-24T13:33:47.892Z,2.30
2018-06-24T13:34:48.089Z,3.10
2018-06-24T13:35:48.207Z,3.30
2018-06-24T13:36:48.440Z,5.60
2018-06-24T13:37:48.604Z,2.90
2018-06-24T13:38:48.764Z,2.70
2018-06-24T13:39:48.966Z,3.70
2018-06-24T13:40:49.089Z,3.10
2018-06-24T13:41:49.271Z,3.60
2018-06-24T13:42:49.447Z,2.90
2018-06-24T13:43:49.666Z,3.50
2018-06-24T13:44:49.882Z,4.70
2018-06-24T13:45:50.056Z,2.90
2018-06-24T13:46:50.236Z,3.10
2018-06-24T13:47:50.401Z,2.40
2018-06-24T13:48:50.533Z,4.30
2018-06-24T13:49:50.754Z,3.90
2018-06-24T13:50:50.920Z,2.70
2018-06-24T13:51:51.031Z,3.20
2018-06-24T13:52:51.265Z,3.00
2018-06-24T13:53:51.416Z,3.50
2018-06-24T13:54:51.640Z,2.60
2018-06-24T13:55:51.771Z,3.00
2018-06-24T13:56:51.946Z,3.00
2018-06-24T13:57:52.143Z,4.40
2018-06-24T13:58:52.278Z,4.60
2018-06-24T13:59:52.468Z,3.50
2018-06-24T14:00:52.728Z,3.00
2018-06-24T14:01:52.819Z,2.90
2018-06-24T14:02:53.005Z,2.80
2018-06-24T14:03:53.248Z,4.10
2018-06-24T14:04:53.394Z,5.30
2018-06-24T14:05:53.551Z,2.60
2018-06-24T14:06:53.720Z,3.20
2018-06-24T14:07:53.922Z,3.60
2018-06-24T14:08:54.123Z,3.10
2018-06-24T14:09:54.239Z,3.60
2018-06-24T14:10:54.514Z,3.50
2018-06-24T14:11:54.690Z,4.50
2018-06-24T14:12:54.882Z,2.90
2018-06-24T14:13:54.979Z,2.30
2018-06-24T14:14:55.125Z,4.30
2018-06-24T14:15:55.269Z,4.20
2018-06-24T14:16:55.528Z,6.40
2018-06-24T14:17:55.673Z,2.50
2018-06-24T14:18:55.836Z,3.60
2018-06-24T14:19:56.054Z,3.10
2018-06-24T14:20:56.170Z,4.90
2018-06-24T14:21:56.380Z,3.80
2018-06-24T14:22:56.505Z,3.20
2018-06-24T14:23:56.660Z,3.60
2018-06-24T14:24:56.835Z,2.60
2018-06-24T14:25:57.146Z,4.40
2018-06-24T14:26:57.268Z,4.00
2018-06-24T14:27:57.453Z,3.60
2018-06-24T14:28:57.673Z,4.70
2018-06-24T14:29:57.870Z,4.60
2018-06-24T14:30:58.027Z,4.30
2018-06-24T14:31:58.233Z,3.90
2018-06-24T14:32:58.354Z,3.70
2018-06-24T14:33:58.593Z,5.40
2018-06-24T14:34:58.836Z,4.70
2018-06-24T14:35:58.868Z,3.20
2018-06-24T14:36:59.097Z,3.90
2018-06-24T14:37:59.266Z,4.30
2018-06-24T14:38:59.390Z,3.70
2018-06-24T14:39:59.680Z,4.20
2018-06-24T14:40:59.784Z,6.40
2018-06-24T14:41:59.954Z,4.70
2018-06-24T14:43:00.078Z,3.80
2018-06-24T14:44:00.345Z,3.80
2018-06-24T14:45:00.485Z,2.90
2018-06-24T14:46:00.683Z,4.10
2018-06-24T14:47:00.862Z,3.90
2018-06-24T14:48:01.010Z,4.10
2018-06-24T14:49:01.165Z,3.00
2018-06-24T14:50:01.376Z,5.20
2018-06-24T14:51:01.477Z,4.70
2018-06-24T14:52:01.659Z,3.90
2018-06-24T14:53:01.868Z,5.10
2018-06-24T14:54:01.982Z,4.20
2018-06-24T14:55:02.192Z,3.70
2018-06-24T14:56:02.293Z,4.00
2018-06-24T14:57:02.470Z,4.50
2018-06-24T14:58:02.792Z,4.20
2018-06-24T14:59:02.844Z,3.10
2018-06-24T15:00:03.039Z,3.80
2018-06-24T15:01:03.200Z,4.90
2018-06-24T15:02:03.362Z,4.60
2018-06-24T15:03:03.545Z,4.50
2018-06-24T15:04:03.779Z,5.10
2018-06-24T15:05:03.922Z,3.60
2018-06-24T15:06:04.074Z,4.30
2018-06-24T15:07:04.237Z,3.20
2018-06-24T15:08:04.388Z,4.70
2018-06-24T15:09:04.624Z,3.70
2018-06-24T15:10:04.844Z,3.80
2018-06-24T15:11:04.954Z,4.50
2018-06-24T15:12:05.153Z,4.90
2018-06-24T15:13:05.320Z,5.00
2018-06-24T15:14:05.515Z,4.10
2018-06-24T15:15:05.656Z,4.40
2018-06-24T15:16:05.842Z,4.00
2018-06-24T15:17:06.022Z,3.00
2018-06-24T15:18:06.252Z,6.10
2018-06-24T15:19:06.323Z,3.60
2018-06-24T15:20:06.514Z,4.10
2018-06-24T15:21:06.708Z,3.40
2018-06-24T15:22:06.950Z,6.00
2018-06-24T15:23:07.068Z,4.70
2018-06-24T15:24:07.260Z,5.00
2018-06-24T15:25:07.479Z,5.20
2018-06-24T15:26:07.654Z,3.10
2018-06-24T15:27:07.898Z,3.90
2018-06-24T15:28:07.979Z,2.60
2018-06-24T15:29:08.141Z,4.10
2018-06-24T15:30:08.290Z,5.00
2018-06-24T15:31:08.433Z,3.50
2018-06-24T15:32:08.644Z,4.90
2018-06-24T15:33:08.811Z,3.90
2018-06-24T15:34:09.091Z,4.60
2018-06-24T15:35:09.177Z,4.30
2018-06-24T15:36:09.367Z,3.70
2018-06-24T15:37:09.579Z,4.10
2018-06-24T15:38:09.747Z,4.30
2018-06-24T15:39:09.953Z,3.90
2018-06-24T15:40:10.091Z,3.90
2018-06-24T15:41:10.241Z,3.40
2018-06-24T15:42:10.405Z,4.30
2018-06-24T15:43:10.544Z,3.80
2018-06-24T15:44:10.690Z,3.10
2018-06-24T15:45:10.883Z,2.80
2018-06-24T15:46:11.068Z,3.50
2018-06-24T15:47:11.362Z,3.80
2018-06-24T15:48:11.478Z,2.90
2018-06-24T15:49:11.656Z,3.70
2018-06-24T15:50:11.891Z,4.40
2018-06-24T15:51:12.020Z,3.30
2018-06-24T15:52:12.207Z,4.00
2018-06-24T15:53:12.369Z,6.00
2018-06-24T15:54:12.514Z,3.20
2018-06-24T15:55:12.758Z,2.90
2018-06-24T15:56:12.905Z,2.60
2018-06-24T15:57:13.029Z,2.10
2018-06-24T15:58:13.250Z,2.80
2018-06-24T15:59:13.413Z,3.20
2018-06-24T16:00:13.568Z,1.70
2018-06-24T16:01:13.828Z,2.60
2018-06-24T16:02:13.964Z,2.60
2018-06-24T16:03:14.118Z,3.20
2018-06-24T16:04:14.320Z,3.50
2018-06-24T16:05:14.390Z,3.10
2018-06-24T16:06:14.598Z,1.90
2018-06-24T16:07:14.803Z,3.50
2018-06-24T16:08:14.954Z,2.10
2018-06-24T16:09:22.916Z,2.30
2018-06-24T16:10:15.401Z,3.50
2018-06-24T16:11:15.646Z,1.90
2018-06-24T16:12:16.241Z,2.40
2018-06-24T16:13:15.886Z,2.80
2018-06-24T16:14:16.017Z,3.00
2018-06-24T16:15:16.135Z,4.30
2018-06-24T16:16:16.335Z,2.70
2018-06-24T16:17:16.581Z,2.80
2018-06-24T16:18:16.698Z,2.30
2018-06-24T16:19:16.896Z,2.30
2018-06-24T16:20:17.069Z,1.90
2018-06-24T16:21:17.548Z,1.90
2018-06-24T16:22:17.412Z,3.20
2018-06-24T16:23:17.650Z,2.90
2018-06-24T16:24:17.761Z,2.80